Time;durP1;ratioP1;P1;durP2;ratioP2;P2;SDS_P1;SDS_P2;PMS_P1;PMS_P2;Temp;Humidity;BMP_temperature;BMP_pressure;BME280_temperature;BME280_humidity;BME280_pressure;Samples;Min_cycle;Max_cycle;Signal;HPM_P1;HPM_P2
2022/10/22 00:00:21;;;;;;;10.98;8.33;;;;;;;20.61;37.79;101523.34;1718452;83;21078;-75
2022/10/22 00:02:48;;;;;;;14.47;9.65;;;;;;;20.61;37.82;101518.37;1726653;82;21058;-76
2022/10/22 00:05:14;;;;;;;14.85;9.08;;;;;;;20.61;37.81;101512.29;1726745;82;21058;-75
2022/10/22 00:07:40;;;;;;;11.93;8.45;;;;;;;20.60;37.80;101513.41;1727043;82;21234;-75
2022/10/22 00:10:07;;;;;;;13.20;9.20;;;;;;;20.59;37.79;101510.38;1726801;83;21078;-75
2022/10/22 00:12:40;;;;;;;11.73;8.88;;;;;;;20.60;37.79;101509.26;1726395;83;20993;-75
2022/10/22 00:15:07;;;;;;;13.85;8.70;;;;;;;20.59;37.78;101510.38;1726511;82;21438;-75
2022/10/22 00:17:33;;;;;;;12.18;8.85;;;;;;;20.59;37.80;101513.14;1726675;82;21457;-75
2022/10/22 00:19:59;;;;;;;12.55;8.25;;;;;;;20.59;37.79;101506.22;1726580;83;21485;-75
2022/10/22 00:22:26;;;;;;;14.80;8.33;;;;;;;20.59;37.80;101512.31;1726765;82;21023;-75
2022/10/22 00:24:52;;;;;;;14.70;8.60;;;;;;;20.59;37.80;101506.22;1745768;82;21074;-75
2022/10/22 00:27:18;;;;;;;14.63;8.43;;;;;;;20.59;37.80;101501.25;1750046;82;21606;-75
2022/10/22 00:29:44;;;;;;;13.58;8.53;;;;;;;20.59;37.79;101501.25;1723613;82;21036;-75
2022/10/22 00:32:11;;;;;;;14.33;9.43;;;;;;;20.58;37.78;101496.88;1750494;82;21199;-75
2022/10/22 00:34:37;;;;;;;13.03;8.73;;;;;;;20.58;37.79;101500.42;1750061;82;21593;-75
2022/10/22 00:37:03;;;;;;;12.65;8.33;;;;;;;20.57;37.78;101508.48;1733044;82;21009;-75
2022/10/22 00:39:29;;;;;;;13.55;8.55;;;;;;;20.57;37.78;101509.87;1723654;82;21082;-75
2022/10/22 00:41:56;;;;;;;14.63;8.85;;;;;;;20.57;37.79;101510.42;1750029;81;21040;-75
2022/10/22 00:45:08;;;;;;;12.63;8.58;;;;;;;20.57;37.77;101503.52;1750422;82;21622;-75
2022/10/22 00:48:04;;;;;;;13.48;8.48;;;;;;;20.57;37.79;101493.84;1750169;82;21063;-75
2022/10/22 00:50:57;;;;;;;14.45;8.95;;;;;;;20.56;37.77;101491.63;1750183;82;21079;-75
2022/10/22 00:53:23;;;;;;;;;;;;;;;20.56;37.77;101486.66;1752425;81;21590;-75
2022/10/22 00:55:51;;;;;;;15.20;9.45;;;;;;;20.53;37.75;101481.19;1750354;82;20201;-75
2022/10/22 00:58:20;;;;;;;14.45;9.05;;;;;;;20.51;37.75;101477.33;1750300;82;21849;-75
2022/10/22 01:00:47;;;;;;;11.90;8.08;;;;;;;20.51;37.77;101476.50;1749828;82;21513;-75
2022/10/22 01:03:13;;;;;;;12.78;9.23;;;;;;;20.50;37.80;101472.91;1726738;82;21103;-75
2022/10/22 01:05:47;;;;;;;14.53;9.03;;;;;;;20.50;37.78;101477.06;1725304;82;21031;-75
2022/10/22 01:08:44;;;;;;;13.80;9.18;;;;;;;20.51;37.79;101475.13;1712683;82;21075;-75
2022/10/22 01:11:53;;;;;;;14.43;9.65;;;;;;;20.49;37.80;101476.82;1725298;82;21146;-75
2022/10/22 01:14:56;;;;;;;15.58;9.43;;;;;;;20.50;37.78;101472.09;1725042;82;21113;-75
2022/10/22 01:17:58;;;;;;;10.95;9.00;;;;;;;20.49;37.77;101468.53;1725317;83;21118;-75
2022/10/22 01:20:52;;;;;;;14.20;9.30;;;;;;;20.49;37.78;101467.70;1725079;83;20992;-75
2022/10/22 01:23:47;;;;;;;11.63;9.05;;;;;;;20.48;37.78;101453.62;1725112;82;21059;-75
2022/10/22 01:26:31;;;;;;;16.23;9.78;;;;;;;20.48;37.77;101464.67;1724578;83;21434;-75
2022/10/22 01:29:14;;;;;;;12.90;9.70;;;;;;;20.48;37.79;101467.44;1724487;82;21106;-75
2022/10/22 01:31:45;;;;;;;14.20;8.98;;;;;;;20.46;37.82;101459.44;1723789;82;21075;-74
2022/10/22 01:34:14;;;;;;;15.08;9.13;;;;;;;20.47;37.82;101460.26;1725439;83;21069;-75
2022/10/22 01:36:40;;;;;;;16.77;9.58;;;;;;;20.46;37.84;101450.31;1723465;82;21042;-75
2022/10/22 01:39:07;;;;;;;15.55;10.45;;;;;;;20.46;37.85;101447.55;1720958;82;21100;-74
2022/10/22 01:41:33;;;;;;;15.13;10.20;;;;;;;20.46;37.85;101447.55;1721137;82;21111;-74
2022/10/22 01:43:59;;;;;;;15.18;10.05;;;;;;;20.46;37.82;101447.00;1721221;83;21091;-75
2022/10/22 01:46:26;;;;;;;14.38;9.65;;;;;;;20.46;37.83;101444.23;1720853;82;21118;-75
2022/10/22 01:49:09;;;;;;;14.58;9.78;;;;;;;20.46;37.83;101440.64;1721141;83;21518;-75
2022/10/22 01:52:13;;;;;;;11.33;8.80;;;;;;;20.47;37.80;101438.15;1721008;82;23424;-74
2022/10/22 01:55:02;;;;;;;13.03;9.75;;;;;;;20.46;37.82;101429.59;1721155;83;21135;-75
2022/10/22 01:57:52;;;;;;;13.65;9.73;;;;;;;20.46;37.83;101429.59;1720860;83;21438;-75
2022/10/22 02:00:19;;;;;;;13.15;9.20;;;;;;;20.45;37.80;101423.23;1719139;83;21070;-75
2022/10/22 02:03:11;;;;;;;14.98;10.10;;;;;;;20.45;37.83;101423.23;1720831;82;21043;-75
2022/10/22 02:05:48;;;;;;;14.87;9.20;;;;;;;20.45;37.83;101426.00;1721004;82;21907;-76
2022/10/22 02:08:18;;;;;;;15.20;10.10;;;;;;;20.44;37.84;101429.08;1721070;82;21043;-75
2022/10/22 02:10:45;;;;;;;19.07;10.35;;;;;;;20.43;37.84;101429.64;1721334;82;21088;-76
2022/10/22 02:13:18;;;;;;;17.92;10.23;;;;;;;20.43;37.85;101425.50;1739319;82;21534;-75
2022/10/22 02:15:51;;;;;;;14.35;10.00;;;;;;;20.43;37.85;101417.20;1746600;81;21040;-74
2022/10/22 02:18:19;;;;;;;15.88;9.98;;;;;;;20.43;37.87;101415.00;1746827;82;21546;-75
2022/10/22 02:20:51;;;;;;;16.85;10.18;;;;;;;20.44;37.84;101413.33;1746724;82;21040;-74
2022/10/22 02:23:18;;;;;;;13.18;9.73;;;;;;;20.45;37.84;101406.65;1746641;81;21098;-75
2022/10/22 02:25:47;;;;;;;14.73;10.50;;;;;;;20.45;37.84;101397.56;1719414;82;21626;-74
2022/10/22 02:28:24;;;;;;;14.65;9.83;;;;;;;20.44;37.85;101405.59;1746945;81;21083;-74
2022/10/22 02:31:00;;;;;;;13.38;10.82;;;;;;;20.44;37.84;101405.03;1746422;82;21979;-76
2022/10/22 02:33:30;;;;;;;15.18;10.38;;;;;;;20.43;37.85;101407.53;1746849;81;21013;-74
2022/10/22 02:35:57;;;;;;;14.80;10.40;;;;;;;20.44;37.83;101406.41;1746592;81;21075;-75
2022/10/22 02:38:23;;;;;;;13.83;10.15;;;;;;;20.44;37.84;101400.06;1750420;81;21558;-75
2022/10/22 02:40:49;;;;;;;14.78;9.45;;;;;;;20.43;37.85;101389.56;1721702;82;21521;-74
2022/10/22 02:43:17;;;;;;;14.63;10.20;;;;;;;20.42;37.81;101386.53;1750707;81;21690;-74
2022/10/22 02:45:44;;;;;;;16.35;10.85;;;;;;;20.43;37.84;101394.27;1750630;80;21545;-74
2022/10/22 02:48:10;;;;;;;16.80;10.25;;;;;;;20.43;37.86;101384.59;1742773;80;21013;-74
2022/10/22 02:50:37;;;;;;;18.27;10.53;;;;;;;20.43;37.85;101384.03;1730901;81;21040;-75
2022/10/22 02:53:03;;;;;;;15.23;10.72;;;;;;;20.43;37.87;101383.22;1731188;81;21598;-75
2022/10/22 02:55:29;;;;;;;15.05;10.40;;;;;;;20.43;37.87;101391.50;1731196;82;21282;-75
2022/10/22 02:57:56;;;;;;;14.78;10.55;;;;;;;20.42;37.85;101390.68;1730797;81;21052;-74
2022/10/22 03:00:22;;;;;;;18.80;11.85;;;;;;;20.43;37.85;101387.36;1731080;81;21055;-74
2022/10/22 03:02:54;;;;;;;13.80;10.70;;;;;;;20.42;37.86;101396.20;1731537;81;21053;-73
2022/10/22 03:05:21;;;;;;;15.75;10.32;;;;;;;20.43;37.80;101403.38;1731122;81;21059;-74
2022/10/22 03:07:47;;;;;;;13.38;10.38;;;;;;;20.43;37.83;101406.70;1726622;82;21095;-74
2022/10/22 03:10:13;;;;;;;14.53;10.58;;;;;;;20.42;37.82;101410.58;1731041;81;21043;-74
2022/10/22 03:12:40;;;;;;;17.90;10.65;;;;;;;20.42;37.82;101403.67;1731106;81;20997;-74
2022/10/22 03:15:06;;;;;;;14.55;10.80;;;;;;;20.42;37.82;101408.64;1702198;81;21064;-74
2022/10/22 03:17:33;;;;;;;15.25;10.28;;;;;;;20.42;37.82;101396.77;1731204;81;21040;-74
2022/10/22 03:19:59;;;;;;;15.90;11.88;;;;;;;20.42;37.84;101389.86;1730959;81;21187;-74
2022/10/22 03:22:28;;;;;;;15.80;10.38;;;;;;;20.41;37.80;101394.56;1731437;81;21068;-74
2022/10/22 03:24:57;;;;;;;15.13;10.20;;;;;;;20.41;37.82;101398.70;1732104;81;21521;-74
2022/10/22 03:27:24;;;;;;;14.50;10.43;;;;;;;20.41;37.80;101395.94;1704571;82;21077;-74
2022/10/22 03:29:50;;;;;;;15.53;10.03;;;;;;;20.41;37.80;101393.17;1704018;82;21558;-74
2022/10/22 03:32:16;;;;;;;15.23;10.40;;;;;;;20.40;37.80;101390.17;1733369;81;21231;-74
2022/10/22 03:34:43;;;;;;;14.93;9.65;;;;;;;20.41;37.80;101396.53;1732954;81;21027;-74
2022/10/22 03:37:09;;;;;;;14.85;9.83;;;;;;;20.40;37.81;101394.33;1731648;82;21017;-74
2022/10/22 03:39:35;;;;;;;19.57;10.88;;;;;;;20.40;37.79;101394.33;1727660;81;21028;-74
2022/10/22 03:42:02;;;;;;;15.55;10.78;;;;;;;20.40;37.79;101400.41;1727894;81;21027;-74
2022/10/22 03:44:29;;;;;;;16.12;10.58;;;;;;;20.40;37.78;101400.41;1727947;81;22149;-75
2022/10/22 03:46:55;;;;;;;17.48;11.20;;;;;;;20.39;37.80;101402.91;1728032;81;21090;-73
2022/10/22 03:49:21;;;;;;;15.15;10.72;;;;;;;20.39;37.79;101403.73;1727723;82;21047;-74
2022/10/22 03:51:48;;;;;;;14.75;10.82;;;;;;;20.38;37.77;101402.08;1727935;81;21496;-74
2022/10/22 03:54:15;;;;;;;17.65;10.80;;;;;;;20.40;37.80;101394.88;1728226;81;20964;-74
2022/10/22 03:56:41;;;;;;;16.23;10.95;;;;;;;20.38;37.80;101403.47;1727695;81;21222;-74
2022/10/22 03:59:07;;;;;;;17.57;10.30;;;;;;;20.37;37.81;101399.05;1727859;83;20995;-74
2022/10/22 04:01:33;;;;;;;16.10;11.05;;;;;;;20.38;37.79;101397.11;1726697;81;21084;-74
2022/10/22 04:04:00;;;;;;;17.37;10.82;;;;;;;20.38;37.79;101395.73;1725535;81;20890;-76
2022/10/22 04:06:28;;;;;;;15.98;10.30;;;;;;;20.38;37.80;101386.88;1726124;82;21020;-74
2022/10/22 04:08:54;;;;;;;18.27;10.78;;;;;;;20.38;37.77;101387.44;1707461;81;21574;-74
2022/10/22 04:11:20;;;;;;;17.05;10.93;;;;;;;20.38;37.77;101388.82;1725598;81;21036;-74
2022/10/22 04:13:46;;;;;;;15.80;10.23;;;;;;;20.37;37.80;101394.91;1726547;81;21024;-74
2022/10/22 04:16:20;;;;;;;16.82;11.18;;;;;;;20.36;37.81;101396.05;1726148;81;21028;-75
2022/10/22 04:18:47;;;;;;;14.50;10.65;;;;;;;20.36;37.77;101398.81;1726054;81;21098;-74
2022/10/22 04:21:15;;;;;;;19.48;10.58;;;;;;;20.37;37.79;101396.84;1725592;81;21240;-74
2022/10/22 04:23:50;;;;;;;18.37;10.53;;;;;;;20.35;37.78;101393.02;1726314;83;21084;-74
2022/10/22 04:26:17;;;;;;;14.87;10.13;;;;;;;20.35;37.77;101393.58;1725649;82;21703;-74
2022/10/22 04:28:44;;;;;;;14.98;10.23;;;;;;;20.36;37.77;101392.46;1725863;81;21092;-74
2022/10/22 04:31:21;;;;;;;15.80;11.25;;;;;;;20.34;37.75;101389.99;1725587;81;21583;-74
2022/10/22 04:33:55;;;;;;;15.80;10.68;;;;;;;20.34;37.75;101389.99;1709266;83;21115;-75
2022/10/22 04:36:22;;;;;;;15.78;10.10;;;;;;;20.34;37.76;101389.16;1708658;82;21013;-74
2022/10/22 04:38:58;;;;;;;15.18;10.05;;;;;;;20.32;37.75;101381.20;1726568;83;21617;-74
2022/10/22 04:41:28;;;;;;;15.13;9.95;;;;;;;20.33;37.75;101393.05;1725917;82;21083;-74
2022/10/22 04:43:54;;;;;;;16.90;11.28;;;;;;;20.33;37.74;101387.52;1732788;82;21063;-76
2022/10/22 04:46:21;;;;;;;15.95;9.80;;;;;;;20.32;37.73;101386.73;1732304;82;21035;-74
2022/10/22 04:48:47;;;;;;;14.23;10.13;;;;;;;20.32;37.75;101383.96;1726282;82;21453;-74
2022/10/22 04:51:16;;;;;;;15.08;11.03;;;;;;;20.33;37.72;101383.38;1727517;80;21047;-74
2022/10/22 04:53:42;;;;;;;16.45;10.68;;;;;;;20.32;37.71;101380.38;1750792;80;21070;-74
2022/10/22 04:56:19;;;;;;;15.13;10.93;;;;;;;20.32;37.72;101381.20;1750611;80;21086;-74
2022/10/22 04:58:50;;;;;;;13.60;10.93;;;;;;;20.32;37.72;101374.84;1750764;80;21094;-74
2022/10/22 05:01:18;;;;;;;16.35;10.70;;;;;;;20.32;37.72;101372.08;1750463;80;21039;-75
2022/10/22 05:03:45;;;;;;;18.25;11.83;;;;;;;20.32;37.72;101385.90;1750650;81;21070;-74
2022/10/22 05:06:11;;;;;;;17.30;10.55;;;;;;;20.31;37.71;101379.55;1750593;80;21066;-74
2022/10/22 05:08:38;;;;;;;14.40;10.00;;;;;;;20.31;37.71;101377.34;1750563;80;21030;-74
2022/10/22 05:11:20;;;;;;;15.55;10.43;;;;;;;20.30;37.73;101378.45;1731676;81;21283;-75
2022/10/22 05:13:46;;;;;;;15.45;10.20;;;;;;;20.30;37.72;101390.33;1748786;80;21105;-74
2022/10/22 05:16:12;;;;;;;16.00;10.48;;;;;;;20.30;37.71;101390.89;1728070;81;21099;-74
2022/10/22 05:18:41;;;;;;;14.07;9.60;;;;;;;20.31;37.71;101394.75;1727909;82;21079;-74
2022/10/22 05:21:11;;;;;;;12.90;10.05;;;;;;;20.30;37.73;101404.16;1727938;81;21103;-74
2022/10/22 05:23:43;;;;;;;12.85;9.65;;;;;;;20.30;37.71;101399.19;1728012;81;21240;-73
2022/10/22 05:26:10;;;;;;;15.63;10.32;;;;;;;20.31;37.72;101409.13;1733242;81;20980;-74
2022/10/22 05:28:37;;;;;;;17.75;11.25;;;;;;;20.29;37.72;101405.27;1727394;81;21098;-75
2022/10/22 05:31:06;;;;;;;12.85;10.05;;;;;;;20.29;37.71;101403.88;1727722;81;21055;-74
2022/10/22 05:33:38;;;;;;;14.28;9.85;;;;;;;20.29;37.71;101406.65;1728249;81;21060;-74
2022/10/22 05:36:06;;;;;;;14.58;10.20;;;;;;;20.29;37.70;101400.27;1727601;82;21740;-74
2022/10/22 05:38:32;;;;;;;15.25;10.08;;;;;;;20.29;37.72;101388.69;1727898;82;21029;-74
2022/10/22 05:41:09;;;;;;;17.42;10.60;;;;;;;20.29;37.72;101384.54;1728174;81;21518;-74
2022/10/22 05:43:36;;;;;;;14.28;9.78;;;;;;;20.28;37.73;101368.25;1728199;81;21541;-74
2022/10/22 05:46:14;;;;;;;14.83;10.35;;;;;;;20.29;37.71;101365.20;1727851;81;21151;-74
2022/10/22 05:48:40;;;;;;;15.95;10.58;;;;;;;20.28;37.68;101354.44;1727954;81;21106;-74
2022/10/22 05:51:10;;;;;;;14.95;9.85;;;;;;;20.29;37.68;101357.44;1727971;81;21244;-74
2022/10/22 05:53:39;;;;;;;18.90;10.10;;;;;;;20.28;37.71;101355.82;1728152;81;21344;-74
2022/10/22 05:56:08;;;;;;;14.00;9.90;;;;;;;20.28;37.67;101350.30;1727788;81;21531;-74
2022/10/22 05:58:34;;;;;;;12.53;9.23;;;;;;;20.28;37.70;101347.53;1728437;81;21091;-76
2022/10/22 06:01:03;;;;;;;15.28;9.83;;;;;;;20.27;37.68;101349.47;1709217;82;21515;-74
2022/10/22 06:03:30;;;;;;;14.58;10.20;;;;;;;20.28;37.68;101358.58;1727852;81;21526;-74
2022/10/22 06:06:02;;;;;;;13.45;9.45;;;;;;;20.27;37.71;101354.99;1727743;81;21024;-75
2022/10/22 06:08:29;;;;;;;15.60;10.28;;;;;;;20.27;37.69;101351.41;1710049;83;22180;-74
2022/10/22 06:10:55;;;;;;;16.32;10.08;;;;;;;20.28;37.70;101343.38;1727663;81;21512;-73
2022/10/22 06:13:21;;;;;;;13.15;9.18;;;;;;;20.27;37.72;101344.50;1728263;81;21235;-74
2022/10/22 06:15:51;;;;;;;15.05;9.88;;;;;;;20.27;37.73;101348.64;1728007;81;21038;-75
2022/10/22 06:18:18;;;;;;;15.28;9.40;;;;;;;20.26;37.73;101352.52;1727865;81;21051;-75
2022/10/22 06:20:44;;;;;;;15.45;10.40;;;;;;;20.27;37.73;101358.31;1727954;81;21034;-75
2022/10/22 06:23:10;;;;;;;14.07;9.93;;;;;;;20.26;37.72;101356.11;1728190;81;21051;-74
2022/10/22 06:25:37;;;;;;;14.00;9.95;;;;;;;20.27;37.72;101348.09;1708982;83;21529;-74
2022/10/22 06:28:03;;;;;;;13.50;9.75;;;;;;;20.26;37.71;101349.76;1727920;81;21060;-74
2022/10/22 06:30:30;;;;;;;15.38;10.35;;;;;;;20.26;37.72;101349.76;1727843;81;21495;-74
2022/10/22 06:32:56;;;;;;;13.70;9.78;;;;;;;20.27;37.72;101347.27;1728068;81;21056;-74
2022/10/22 06:35:22;;;;;;;13.43;9.98;;;;;;;20.27;37.73;101351.41;1727921;81;21048;-74
2022/10/22 06:37:49;;;;;;;15.20;9.90;;;;;;;20.26;37.74;101344.23;1728752;81;22002;-74
2022/10/22 06:40:17;;;;;;;14.38;9.85;;;;;;;20.26;37.75;101333.18;1732550;81;21099;-75
2022/10/22 06:42:44;;;;;;;15.08;9.63;;;;;;;20.26;37.74;101340.09;1732878;81;21253;-74
2022/10/22 06:45:11;;;;;;;12.50;9.40;;;;;;;20.26;37.74;101333.18;1704080;82;21107;-76
2022/10/22 06:47:37;;;;;;;13.28;8.98;;;;;;;20.26;37.75;101330.42;1732773;82;21114;-74
2022/10/22 06:50:04;;;;;;;13.78;10.13;;;;;;;20.26;37.74;101334.56;1732513;81;21272;-74
2022/10/22 06:52:30;;;;;;;14.68;10.00;;;;;;;20.26;37.75;101347.82;1732011;81;22043;-74
2022/10/22 06:54:56;;;;;;;12.78;9.18;;;;;;;20.25;37.74;101343.41;1732499;81;21570;-74
2022/10/22 06:57:23;;;;;;;14.18;9.83;;;;;;;20.26;37.75;101340.09;1732722;82;21088;-74
2022/10/22 06:59:49;;;;;;;15.60;9.40;;;;;;;20.26;37.78;101342.85;1728103;81;21550;-74
2022/10/22 07:02:15;;;;;;;13.85;10.00;;;;;;;20.26;37.79;101353.91;1732698;81;21436;-74
2022/10/22 07:04:41;;;;;;;14.63;9.38;;;;;;;20.25;37.79;101338.44;1733112;81;21040;-74
2022/10/22 07:07:08;;;;;;;14.65;9.95;;;;;;;20.25;37.80;101335.68;1732784;81;21519;-74
2022/10/22 07:09:34;;;;;;;14.53;9.13;;;;;;;20.25;37.80;101339.82;1732641;81;21480;-75
2022/10/22 07:12:00;;;;;;;13.13;9.10;;;;;;;20.24;37.79;101340.97;1732994;81;21083;-76
2022/10/22 07:14:26;;;;;;;14.45;9.45;;;;;;;20.25;37.79;101335.12;1733055;81;21292;-74
2022/10/22 07:16:52;;;;;;;15.72;10.18;;;;;;;20.25;37.80;101334.30;1732535;81;21032;-74
2022/10/22 07:19:19;;;;;;;15.03;9.68;;;;;;;20.25;37.80;101326.01;1732586;81;21027;-75
2022/10/22 07:21:45;;;;;;;13.72;9.90;;;;;;;20.26;37.78;101327.66;1732636;81;21043;-74
2022/10/22 07:24:11;;;;;;;13.43;9.15;;;;;;;20.26;37.78;101338.70;1732702;81;21488;-74
2022/10/22 07:26:37;;;;;;;13.08;8.75;;;;;;;20.25;37.78;101348.94;1732604;81;22142;-74
2022/10/22 07:29:03;;;;;;;16.20;9.73;;;;;;;20.24;37.79;101350.05;1703575;81;20893;-75
2022/10/22 07:31:30;;;;;;;14.45;9.68;;;;;;;20.25;37.80;101359.16;1732381;81;21570;-74
2022/10/22 07:33:57;;;;;;;14.87;9.25;;;;;;;20.24;37.80;101356.95;1732903;81;20996;-74
2022/10/22 07:36:23;;;;;;;14.07;8.65;;;;;;;20.26;37.81;101364.95;1732820;81;21122;-74
2022/10/22 07:38:55;;;;;;;13.32;9.30;;;;;;;20.24;37.83;101362.48;1749907;80;21172;-74
2022/10/22 07:41:22;;;;;;;15.35;10.30;;;;;;;20.24;37.82;101361.10;1750869;81;21034;-74
2022/10/22 07:43:48;;;;;;;16.75;9.18;;;;;;;20.24;37.82;101363.86;1736482;81;21120;-76
2022/10/22 07:46:15;;;;;;;14.05;8.80;;;;;;;20.25;37.86;101363.30;1733557;82;21067;-74
2022/10/22 07:48:41;;;;;;;12.47;8.63;;;;;;;20.24;37.84;101356.95;1728217;81;21570;-74
2022/10/22 07:51:07;;;;;;;13.03;9.00;;;;;;;20.23;37.84;101356.72;1728215;81;21198;-74
2022/10/22 07:53:33;;;;;;;13.58;8.78;;;;;;;20.24;37.86;101361.69;1728130;81;21024;-74
2022/10/22 07:55:59;;;;;;;15.28;9.35;;;;;;;20.24;37.84;101360.31;1727905;81;21079;-75
2022/10/22 07:58:26;;;;;;;14.35;9.30;;;;;;;20.23;37.85;101362.25;1727955;81;21198;-73
2022/10/22 08:00:55;;;;;;;12.20;8.70;;;;;;;20.24;37.87;101360.31;1727888;81;21462;-73
2022/10/22 08:03:21;;;;;;;14.90;9.00;;;;;;;20.23;37.85;101355.34;1728312;81;20988;-73
2022/10/22 08:05:47;;;;;;;14.90;9.10;;;;;;;20.24;37.88;101360.31;1728264;81;21059;-74
2022/10/22 08:08:20;;;;;;;17.17;9.78;;;;;;;20.23;37.89;101355.34;1727575;81;22167;-74
2022/10/22 08:10:47;;;;;;;14.55;8.80;;;;;;;20.24;37.87;101347.88;1727874;81;22157;-74
2022/10/22 08:13:14;;;;;;;11.97;8.53;;;;;;;20.24;37.84;101353.40;1728146;81;21140;-74
2022/10/22 08:15:42;;;;;;;13.65;9.53;;;;;;;20.24;37.84;101349.26;1728203;81;21583;-75
2022/10/22 08:18:08;;;;;;;14.18;8.63;;;;;;;20.22;37.85;101346.78;1731425;81;21176;-74
2022/10/22 08:20:34;;;;;;;12.00;8.38;;;;;;;20.23;37.85;101357.28;1743439;81;21067;-74
2022/10/22 08:23:00;;;;;;;12.78;8.60;;;;;;;20.23;37.85;101355.34;1743371;80;21523;-75
2022/10/22 08:25:27;;;;;;;11.00;8.65;;;;;;;20.22;37.85;101345.41;1743543;81;21083;-74
2022/10/22 08:27:59;;;;;;;14.45;8.60;;;;;;;20.22;37.85;101340.44;1725227;82;21143;-74
2022/10/22 08:30:28;;;;;;;12.05;9.53;;;;;;;20.23;37.85;101352.58;1724349;82;20988;-76
2022/10/22 08:32:55;;;;;;;14.38;9.25;;;;;;;20.22;37.85;101350.10;1743316;81;32481;-75
2022/10/22 08:35:21;;;;;;;11.60;8.48;;;;;;;20.23;37.85;101355.89;1743999;81;21020;-73
2022/10/22 08:37:48;;;;;;;13.90;9.43;;;;;;;20.22;37.88;101352.31;1743760;80;21024;-74
2022/10/22 08:40:36;;;;;;;11.28;8.35;;;;;;;20.22;37.85;101352.87;1754177;80;21285;-75
2022/10/22 08:43:46;;;;;;;13.53;9.03;;;;;;;20.23;37.85;101351.20;1756762;80;21542;-74
2022/10/22 08:46:39;;;;;;;13.28;8.63;;;;;;;20.22;37.85;101340.44;1756876;80;21098;-74
2022/10/22 08:49:10;;;;;;;11.95;8.33;;;;;;;20.21;37.83;101330.50;1756725;80;21561;-74
2022/10/22 08:51:39;;;;;;;12.10;8.80;;;;;;;20.20;37.82;101343.48;1757108;80;21503;-74
2022/10/22 08:54:52;;;;;;;11.65;8.70;;;;;;;20.20;37.83;101344.88;1749193;80;21475;-74
2022/10/22 08:57:36;;;;;;;14.53;8.73;;;;;;;20.19;37.85;101340.49;1741236;81;21019;-74
2022/10/22 09:00:23;;;;;;;12.10;8.75;;;;;;;20.19;37.86;101343.25;1741176;81;20940;-74
2022/10/22 09:03:38;;;;;;;12.65;8.20;;;;;;;20.18;37.86;101344.37;1741103;81;21487;-74
2022/10/22 09:06:23;;;;;;;12.03;7.90;;;;;;;20.18;37.86;101340.78;1741315;81;21036;-75
2022/10/22 09:08:50;;;;;;;14.70;9.80;;;;;;;20.17;37.88;101340.52;1740581;81;21109;-74
2022/10/22 09:11:35;;;;;;;12.45;8.33;;;;;;;20.17;37.88;101341.34;1683416;83;21062;-74
2022/10/22 09:14:02;;;;;;;12.10;8.38;;;;;;;20.18;37.90;101339.40;1665351;85;21072;-74
2022/10/22 09:17:14;;;;;;;13.48;9.28;;;;;;;20.17;37.88;101322.55;1677470;84;21072;-74
2022/10/22 09:20:09;;;;;;;13.80;8.60;;;;;;;20.18;37.91;101336.64;1698949;84;21031;-75
2022/10/22 09:22:49;;;;;;;13.05;8.90;;;;;;;20.17;37.90;101337.75;1741212;81;21498;-75
2022/10/22 09:25:27;;;;;;;14.55;8.78;;;;;;;20.16;37.91;101330.02;1740124;81;21066;-74
2022/10/22 09:27:57;;;;;;;10.82;7.95;;;;;;;20.16;37.91;101322.29;1741035;81;21581;-74
2022/10/22 09:30:26;;;;;;;11.90;7.67;;;;;;;20.16;37.92;101326.44;1693027;82;21544;-75
2022/10/22 09:33:12;;;;;;;13.00;8.30;;;;;;;20.17;37.94;101322.55;1665760;85;21104;-75
2022/10/22 09:36:02;;;;;;;12.33;8.25;;;;;;;20.16;37.93;101323.11;1659180;85;21545;-74
2022/10/22 09:38:31;;;;;;;12.85;8.50;;;;;;;20.17;37.93;101314.27;1699111;83;21066;-72
2022/10/22 09:40:59;;;;;;;13.00;8.25;;;;;;;20.16;37.93;101309.86;1732921;81;21098;-74
2022/10/22 09:43:26;;;;;;;12.23;8.43;;;;;;;20.17;37.93;101317.03;1733118;82;21515;-74
2022/10/22 09:45:58;;;;;;;13.32;8.40;;;;;;;20.17;37.93;101297.13;1732813;81;21341;-75
2022/10/22 09:48:39;;;;;;;13.10;8.30;;;;;;;20.18;37.96;101296.58;1732352;81;22454;-74
2022/10/22 09:51:13;;;;;;;11.28;8.05;;;;;;;20.17;37.94;101287.47;1733292;81;21081;-73
2022/10/22 09:53:45;;;;;;;11.60;8.00;;;;;;;20.17;37.96;101273.66;1732448;81;21024;-74
2022/10/22 09:56:36;;;;;;;11.38;7.95;;;;;;;20.18;37.96;101273.09;1732972;81;21056;-73
2022/10/22 09:59:02;;;;;;;10.72;7.83;;;;;;;20.17;37.96;101269.51;1728252;81;21051;-73
2022/10/22 10:01:34;;;;;;;10.98;7.78;;;;;;;20.17;37.97;101269.51;1733072;81;21775;-74
2022/10/22 10:04:10;;;;;;;12.53;8.50;;;;;;;20.17;37.99;101275.03;1669100;85;21042;-74
2022/10/22 10:06:39;;;;;;;13.35;7.90;;;;;;;20.18;37.98;101265.62;1731708;81;21083;-74
2022/10/22 10:09:18;;;;;;;12.10;7.33;;;;;;;20.19;37.98;101265.89;1733112;81;21027;-75
2022/10/22 10:12:10;;;;;;;11.10;8.08;;;;;;;20.18;37.99;101257.34;1732938;81;21554;-74
2022/10/22 10:15:08;;;;;;;14.25;8.40;;;;;;;20.19;37.99;101260.92;1731782;81;21499;-74
2022/10/22 10:17:46;;;;;;;11.75;7.87;;;;;;;20.19;37.98;101257.61;1732861;81;21012;-74
2022/10/22 10:20:30;;;;;;;12.98;7.83;;;;;;;20.19;37.99;101247.94;1733365;82;21040;-74
2022/10/22 10:23:28;;;;;;;12.78;8.50;;;;;;;20.19;37.99;101238.83;1733002;81;21258;-75
2022/10/22 10:26:33;;;;;;;12.50;7.90;;;;;;;20.19;38.01;101237.45;1687426;83;21077;-74
2022/10/22 10:29:17;;;;;;;10.38;7.55;;;;;;;20.19;38.03;101247.11;1732825;81;21108;-74
2022/10/22 10:32:07;;;;;;;14.50;8.18;;;;;;;20.18;38.01;101247.67;1732763;82;21095;-74
2022/10/22 10:35:15;;;;;;;11.70;7.97;;;;;;;20.18;38.01;101246.30;1684423;84;21050;-74
2022/10/22 10:37:56;;;;;;;10.03;7.53;;;;;;;20.18;38.03;101248.23;1733201;82;21498;-75
2022/10/22 10:40:50;;;;;;;9.48;7.42;;;;;;;20.17;38.06;101248.78;1729938;81;21563;-75
2022/10/22 10:43:34;;;;;;;11.55;8.03;;;;;;;20.18;38.06;101242.70;1670902;84;21537;-74
2022/10/22 10:46:34;;;;;;;11.10;7.30;;;;;;;20.17;38.06;101237.73;1726986;82;21040;-75
2022/10/22 10:49:10;;;;;;;12.03;7.75;;;;;;;20.16;38.08;101227.80;1727901;81;21060;-75
2022/10/22 10:52:22;;;;;;;10.68;7.67;;;;;;;20.16;38.09;101218.14;1727493;82;21063;-74
2022/10/22 10:55:13;;;;;;;11.03;7.55;;;;;;;20.17;38.11;101217.58;1728000;81;22351;-75
2022/10/22 10:57:58;;;;;;;10.55;7.92;;;;;;;20.15;38.11;101212.38;1727746;81;21128;-75
2022/10/22 11:00:59;;;;;;;10.25;7.70;;;;;;;20.16;38.13;101211.78;1709060;81;21466;-75
2022/10/22 11:03:46;;;;;;;12.55;7.28;;;;;;;20.15;38.14;101208.23;1727564;82;21044;-74
2022/10/22 11:06:15;;;;;;;11.15;7.95;;;;;;;20.15;38.13;101202.70;1682913;81;21531;-74
2022/10/22 11:09:16;;;;;;;11.03;7.55;;;;;;;20.15;38.14;101197.19;1727615;81;21052;-74
2022/10/22 11:11:53;;;;;;;10.98;7.58;;;;;;;20.14;38.16;101194.71;1728163;81;21570;-74
2022/10/22 11:14:32;;;;;;;9.58;6.87;;;;;;;20.15;38.18;101182.55;1727474;81;20981;-75
2022/10/22 11:17:17;;;;;;;9.43;7.40;;;;;;;20.14;38.18;101177.58;1727659;81;21618;-75
2022/10/22 11:20:05;;;;;;;9.68;7.03;;;;;;;20.14;38.17;101182.28;1727392;81;21035;-74
2022/10/22 11:22:48;;;;;;;12.80;6.90;;;;;;;20.14;38.20;101179.52;1727940;81;21112;-74
2022/10/22 11:25:19;;;;;;;9.98;7.60;;;;;;;20.14;38.20;101173.44;1727502;81;21357;-73
2022/10/22 11:27:55;;;;;;;;;;;;;;;20.14;38.22;101165.71;1730419;81;21059;-74
2022/10/22 11:30:23;;;;;;;9.73;7.35;;;;;;;20.13;38.24;101156.59;1727540;81;20179;-73
2022/10/22 11:32:54;;;;;;;9.20;7.25;;;;;;;20.12;38.24;101147.23;1727977;81;21032;-73
2022/10/22 11:35:24;;;;;;;12.40;7.53;;;;;;;20.13;38.24;101133.67;1727787;82;21217;-75
2022/10/22 11:37:50;;;;;;;11.80;7.95;;;;;;;20.13;38.27;101128.16;1727318;81;21104;-75
2022/10/22 11:40:24;;;;;;;11.18;6.53;;;;;;;20.13;38.26;101123.45;1724505;82;21074;-74